createdAt,value
2022-12-17T00:01:03.809Z,112.67
2022-12-17T00:03:49.582Z,118.03
2022-12-17T00:06:35.748Z,101.40
2022-12-17T00:09:32.881Z,103.30
2022-12-17T00:12:18.259Z,92.77
2022-12-17T00:15:03.400Z,96.13
2022-12-17T00:17:50.035Z,93.40
2022-12-17T00:20:35.253Z,95.73
2022-12-17T00:23:22.519Z,98.03
2022-12-17T00:26:12.066Z,94.63
2022-12-17T00:28:57.829Z,92.53
2022-12-17T00:31:45.120Z,95.57
2022-12-17T00:34:37.437Z,91.77
2022-12-17T00:37:23.059Z,95.13
2022-12-17T00:40:08.284Z,100.63
2022-12-17T00:42:53.652Z,94.00
2022-12-17T00:45:41.818Z,100.07
2022-12-17T00:48:27.121Z,99.73
2022-12-17T00:51:15.352Z,103.47
2022-12-17T00:54:00.701Z,92.73
2022-12-17T00:56:46.035Z,96.93
2022-12-17T00:59:39.711Z,99.03
2022-12-17T01:02:25.312Z,100.13
2022-12-17T01:05:11.268Z,103.00
2022-12-17T01:07:57.888Z,98.20
2022-12-17T01:10:44.820Z,101.07
2022-12-17T01:13:32.276Z,95.53
2022-12-17T01:16:21.959Z,103.37
2022-12-17T01:19:07.286Z,93.73
2022-12-17T01:21:53.409Z,85.87
2022-12-17T01:24:40.455Z,90.70
2022-12-17T01:27:26.829Z,85.27
2022-12-17T01:30:12.710Z,87.47
2022-12-17T01:32:58.017Z,87.27
2022-12-17T01:35:43.398Z,78.50
2022-12-17T01:38:29.750Z,82.90
2022-12-17T01:41:16.801Z,79.97
2022-12-17T01:44:02.227Z,88.47
2022-12-17T01:46:51.690Z,84.60
2022-12-17T01:49:38.285Z,77.83
2022-12-17T01:52:24.159Z,90.77
2022-12-17T01:55:09.634Z,84.03
2022-12-17T01:57:57.175Z,82.60
2022-12-17T02:00:43.042Z,80.43
2022-12-17T02:03:33.468Z,76.13
2022-12-17T02:06:29.268Z,75.73
2022-12-17T02:09:27.556Z,75.97
2022-12-17T02:12:25.780Z,73.33
2022-12-17T02:15:20.122Z,74.33
2022-12-17T02:18:11.891Z,71.20
2022-12-17T02:21:01.017Z,72.80
2022-12-17T02:23:57.665Z,72.80
2022-12-17T02:26:55.758Z,74.20
2022-12-17T02:29:43.546Z,77.43
2022-12-17T02:32:31.925Z,75.97
2022-12-17T02:35:20.019Z,76.97
2022-12-17T02:38:05.700Z,75.63
2022-12-17T02:40:50.187Z,83.07
2022-12-17T02:43:38.497Z,83.90
2022-12-17T02:46:25.428Z,78.00
2022-12-17T02:49:11.295Z,85.60
2022-12-17T02:51:57.538Z,79.23
2022-12-17T02:54:47.964Z,77.97
2022-12-17T02:57:33.309Z,75.67
2022-12-17T03:00:20.547Z,71.33
2022-12-17T03:03:08.158Z,71.03
2022-12-17T03:05:53.663Z,75.60
2022-12-17T03:08:39.006Z,64.47
2022-12-17T03:11:24.344Z,66.33
2022-12-17T03:14:10.557Z,64.60
2022-12-17T03:16:57.765Z,62.30
2022-12-17T03:19:43.009Z,68.13
2022-12-17T03:22:28.398Z,63.63
2022-12-17T03:25:13.967Z,66.20
2022-12-17T03:27:59.643Z,63.37
2022-12-17T03:30:48.929Z,62.10
2022-12-17T03:33:36.372Z,64.27
2022-12-17T03:36:22.368Z,63.07
2022-12-17T03:39:06.851Z,64.13
2022-12-17T03:41:52.335Z,60.43
2022-12-17T03:44:37.626Z,59.23
2022-12-17T03:47:22.875Z,57.47
2022-12-17T03:50:09.529Z,56.97
2022-12-17T03:52:54.899Z,55.27
2022-12-17T03:55:40.245Z,56.73
2022-12-17T03:58:25.877Z,53.97
2022-12-17T04:01:11.418Z,54.33
2022-12-17T04:03:56.919Z,54.37
2022-12-17T04:06:43.495Z,52.27
2022-12-17T04:09:28.828Z,51.30
2022-12-17T04:12:14.132Z,52.07
2022-12-17T04:14:59.431Z,52.17
2022-12-17T04:17:45.308Z,51.30
2022-12-17T04:20:30.717Z,49.40
2022-12-17T04:23:17.747Z,52.60
2022-12-17T04:26:03.039Z,50.17
2022-12-17T04:28:48.281Z,50.50
2022-12-17T04:31:33.740Z,51.00
2022-12-17T04:34:30.717Z,50.47
2022-12-17T04:37:16.066Z,53.47
2022-12-17T04:40:02.695Z,51.80
2022-12-17T04:42:48.261Z,52.90
2022-12-17T04:45:33.813Z,52.87
2022-12-17T04:48:20.701Z,51.93
2022-12-17T04:51:17.455Z,49.27
2022-12-17T04:54:02.810Z,49.60
2022-12-17T04:56:49.865Z,52.07
2022-12-17T04:59:35.255Z,50.43
2022-12-17T05:02:20.572Z,49.67
2022-12-17T05:05:06.315Z,49.20
2022-12-17T05:07:51.632Z,50.00
2022-12-17T05:10:42.215Z,48.53
2022-12-17T05:13:29.133Z,47.57
2022-12-17T05:16:14.965Z,49.93
2022-12-17T05:19:00.723Z,51.03
2022-12-17T05:21:46.651Z,51.37
2022-12-17T05:24:31.977Z,50.03
2022-12-17T05:27:17.444Z,50.20
2022-12-17T05:30:04.707Z,52.07
2022-12-17T05:32:49.951Z,51.37
2022-12-17T05:35:35.974Z,50.47
2022-12-17T05:38:23.365Z,49.87
2022-12-17T05:41:09.713Z,52.27
2022-12-17T05:43:55.110Z,51.77
2022-12-17T05:46:42.309Z,52.63
2022-12-17T05:49:27.621Z,53.13
2022-12-17T05:52:13.198Z,52.60
2022-12-17T05:54:58.426Z,55.10
2022-12-17T05:57:43.852Z,56.13
2022-12-17T06:00:30.335Z,56.97
2022-12-17T06:03:18.957Z,56.73
2022-12-17T06:06:04.278Z,59.37
2022-12-17T06:08:49.790Z,56.23
2022-12-17T06:11:35.007Z,59.73
2022-12-17T06:14:20.535Z,61.67
2022-12-17T06:17:05.716Z,62.30
2022-12-17T06:19:52.964Z,59.90
2022-12-17T06:22:38.750Z,59.90
2022-12-17T06:25:27.109Z,61.73
2022-12-17T06:28:17.060Z,60.47
2022-12-17T06:31:09.326Z,56.63
2022-12-17T06:33:56.226Z,59.13
2022-12-17T06:36:43.343Z,57.30
2022-12-17T06:39:40.142Z,58.70
2022-12-17T06:42:26.048Z,57.07
2022-12-17T06:45:11.303Z,58.13
2022-12-17T06:47:56.614Z,57.90
2022-12-17T06:50:41.734Z,59.10
2022-12-17T06:53:29.739Z,58.67
2022-12-17T06:56:17.110Z,58.57
2022-12-17T06:59:02.332Z,57.77
2022-12-17T07:01:48.676Z,56.17
2022-12-17T07:04:34.407Z,58.07
2022-12-17T07:07:20.104Z,61.80
2022-12-17T07:10:13.617Z,59.97
2022-12-17T07:13:01.858Z,57.80
2022-12-17T07:15:48.143Z,56.30
2022-12-17T07:18:33.355Z,58.50
2022-12-17T07:21:18.730Z,59.47
2022-12-17T07:24:04.159Z,59.17
2022-12-17T07:27:02.561Z,58.63
2022-12-17T07:29:48.075Z,61.67
2022-12-17T07:32:33.389Z,59.40
2022-12-17T07:35:18.826Z,60.60
2022-12-17T07:38:04.141Z,58.07
2022-12-17T07:40:49.788Z,62.83
2022-12-17T07:43:37.213Z,62.03
2022-12-17T07:46:23.438Z,58.57
2022-12-17T07:49:14.611Z,167.37
2022-12-17T07:52:02.668Z,61.63
2022-12-17T07:54:47.977Z,58.87
2022-12-17T07:57:33.726Z,58.10
2022-12-17T08:00:20.623Z,56.23
2022-12-17T08:03:06.625Z,55.60
2022-12-17T08:05:52.511Z,58.17
2022-12-17T08:08:37.899Z,57.77
2022-12-17T08:11:25.870Z,60.17
2022-12-17T08:14:11.703Z,61.50
2022-12-17T08:16:58.504Z,128.50
2022-12-17T08:19:44.141Z,62.87
2022-12-17T08:22:29.537Z,61.90
2022-12-17T08:25:15.070Z,58.20
2022-12-17T08:28:01.112Z,58.70
2022-12-17T08:30:51.513Z,58.30
2022-12-17T08:33:38.489Z,59.23
2022-12-17T08:36:24.279Z,57.40
2022-12-17T08:39:09.520Z,62.03
2022-12-17T08:41:57.444Z,61.47
2022-12-17T08:44:45.115Z,56.93
2022-12-17T08:47:30.456Z,61.50
2022-12-17T08:50:17.476Z,61.53
2022-12-17T08:53:02.661Z,61.87
2022-12-17T08:55:48.049Z,62.77
2022-12-17T08:58:33.406Z,59.50
2022-12-17T09:01:20.058Z,60.50
2022-12-17T09:04:06.129Z,64.23
2022-12-17T09:06:52.685Z,61.07
2022-12-17T09:09:39.464Z,61.10
2022-12-17T09:12:25.439Z,58.77
2022-12-17T09:15:10.771Z,59.17
2022-12-17T09:17:56.163Z,61.10
2022-12-17T09:20:41.394Z,60.53
2022-12-17T09:23:28.067Z,65.60
2022-12-17T09:26:14.992Z,62.63
2022-12-17T09:29:01.182Z,63.17
2022-12-17T09:31:46.464Z,69.60
2022-12-17T09:34:31.927Z,65.93
2022-12-17T09:37:17.660Z,66.53
2022-12-17T09:40:04.690Z,63.07
2022-12-17T09:42:59.936Z,63.00
2022-12-17T09:45:51.505Z,60.37
2022-12-17T09:48:41.906Z,63.73
2022-12-17T09:51:39.776Z,67.40
2022-12-17T09:54:33.549Z,64.43
2022-12-17T09:57:20.584Z,68.00
2022-12-17T10:00:05.954Z,68.00
2022-12-17T10:02:58.298Z,62.63
2022-12-17T10:05:49.647Z,69.20
2022-12-17T10:08:39.114Z,65.53
2022-12-17T10:11:35.717Z,62.70
2022-12-17T10:14:30.656Z,64.50
2022-12-17T10:17:16.203Z,63.47
2022-12-17T10:20:01.991Z,64.07
2022-12-17T10:22:47.666Z,64.57
2022-12-17T10:25:35.529Z,66.43
2022-12-17T10:28:23.636Z,63.63
2022-12-17T10:31:10.585Z,66.90
2022-12-17T10:33:58.997Z,66.90
2022-12-17T10:36:45.848Z,66.67
2022-12-17T10:39:35.017Z,65.37
2022-12-17T10:42:20.891Z,69.70
2022-12-17T10:45:14.583Z,64.50
2022-12-17T10:48:02.958Z,62.77
2022-12-17T10:51:06.319Z,64.77
2022-12-17T10:53:52.155Z,66.47
2022-12-17T10:56:41.493Z,63.17
2022-12-17T10:59:31.565Z,62.80
2022-12-17T11:02:18.210Z,58.43
2022-12-17T11:05:12.063Z,57.53
2022-12-17T11:08:01.979Z,56.10
2022-12-17T11:10:51.360Z,60.00
2022-12-17T11:13:47.558Z,56.33
2022-12-17T11:16:39.502Z,60.90
2022-12-17T11:19:44.306Z,58.30
2022-12-17T11:22:40.156Z,56.70
2022-12-17T11:25:45.506Z,58.03
2022-12-17T11:28:38.008Z,56.37
2022-12-17T11:31:33.779Z,63.03
2022-12-17T11:34:28.804Z,60.77
2022-12-17T11:37:24.688Z,62.83
2022-12-17T11:40:20.002Z,64.97
2022-12-17T11:43:14.126Z,65.73
2022-12-17T11:46:11.152Z,67.87
2022-12-17T11:49:02.781Z,68.40
2022-12-17T11:51:55.300Z,71.50
2022-12-17T11:54:46.916Z,75.23
2022-12-17T11:57:41.463Z,73.67
2022-12-17T12:00:35.150Z,71.43
2022-12-17T12:03:37.164Z,69.87
2022-12-17T12:06:32.122Z,74.93
2022-12-17T12:09:29.596Z,76.87
2022-12-17T12:12:23.182Z,75.77
2022-12-17T12:15:20.035Z,77.97
2022-12-17T12:18:12.463Z,76.03
2022-12-17T12:21:25.105Z,77.03
2022-12-17T12:24:22.588Z,78.33
2022-12-17T12:27:15.182Z,79.10
2022-12-17T12:30:07.523Z,74.60
2022-12-17T12:33:05.488Z,77.07
2022-12-17T12:35:56.447Z,78.90
2022-12-17T12:38:48.777Z,81.27
2022-12-17T12:41:46.608Z,79.97
2022-12-17T12:44:46.936Z,86.17
2022-12-17T12:47:42.692Z,83.23
2022-12-17T12:50:37.893Z,80.77
2022-12-17T12:53:23.655Z,85.03
2022-12-17T12:56:14.452Z,84.87
2022-12-17T12:59:00.204Z,83.60
2022-12-17T13:01:56.744Z,78.40
2022-12-17T13:04:49.635Z,84.83
2022-12-17T13:07:28.566Z,85.57
2022-12-17T13:09:58.264Z,88.13
2022-12-17T13:12:32.301Z,88.23
2022-12-17T13:15:12.239Z,85.30
2022-12-17T13:17:44.433Z,84.80
2022-12-17T13:20:28.263Z,86.50
2022-12-17T13:23:16.805Z,83.73
2022-12-17T13:25:45.253Z,84.00
2022-12-17T13:28:30.775Z,83.43
2022-12-17T13:31:03.750Z,87.57
2022-12-17T13:33:41.149Z,85.47
2022-12-17T13:36:15.288Z,86.10
2022-12-17T13:38:53.168Z,83.57
2022-12-17T13:41:27.486Z,86.27
2022-12-17T13:43:58.016Z,88.60
2022-12-17T13:46:27.974Z,82.53
2022-12-17T13:48:58.678Z,80.87
2022-12-17T13:51:29.051Z,83.57
2022-12-17T13:53:59.966Z,85.80
2022-12-17T13:56:31.268Z,85.30
2022-12-17T13:59:08.468Z,87.97
2022-12-17T14:01:46.586Z,82.17
2022-12-17T14:04:22.860Z,81.50
2022-12-17T14:06:52.732Z,83.73
2022-12-17T14:09:25.382Z,84.77
2022-12-17T14:12:11.219Z,86.17
2022-12-17T14:14:41.605Z,88.23
2022-12-17T14:17:18.562Z,83.10
2022-12-17T14:19:46.911Z,89.03
2022-12-17T14:22:20.815Z,89.20
2022-12-17T14:24:50.311Z,91.30
2022-12-17T14:27:27.605Z,86.07
2022-12-17T14:29:56.984Z,86.67
2022-12-17T14:32:27.824Z,89.93
2022-12-17T14:35:00.458Z,83.90
2022-12-17T14:37:30.364Z,85.67
2022-12-17T14:40:04.106Z,82.83
2022-12-17T14:42:37.104Z,84.83
2022-12-17T14:45:21.720Z,85.90
2022-12-17T14:47:54.735Z,84.90
2022-12-17T14:50:29.429Z,81.87
2022-12-17T14:52:59.123Z,84.77
2022-12-17T14:55:34.600Z,87.37
2022-12-17T14:58:21.219Z,82.27
2022-12-17T15:00:53.928Z,87.37
2022-12-17T15:03:25.642Z,87.93
2022-12-17T15:05:58.115Z,84.80
2022-12-17T15:08:35.783Z,86.17
2022-12-17T15:11:05.703Z,87.80
2022-12-17T15:13:33.793Z,86.77
2022-12-17T15:16:01.921Z,91.53
2022-12-17T15:18:29.888Z,93.27
2022-12-17T15:20:57.983Z,93.33
2022-12-17T15:23:26.390Z,91.37
2022-12-17T15:25:55.559Z,98.43
2022-12-17T15:28:25.416Z,95.87
2022-12-17T15:30:53.703Z,99.80
2022-12-17T15:33:21.730Z,103.93
2022-12-17T15:35:49.782Z,110.40
2022-12-17T15:38:25.293Z,114.13
2022-12-17T15:40:53.420Z,110.13
2022-12-17T15:43:20.510Z,121.23
2022-12-17T15:45:51.381Z,118.47
2022-12-17T15:48:21.616Z,118.07
2022-12-17T15:50:50.030Z,121.90
2022-12-17T15:53:18.009Z,127.20
2022-12-17T15:55:46.071Z,129.47
2022-12-17T15:58:14.107Z,128.23
2022-12-17T16:00:42.115Z,123.80
2022-12-17T16:03:11.695Z,132.90
2022-12-17T16:05:39.754Z,129.37
2022-12-17T16:08:07.901Z,126.00
2022-12-17T16:10:35.926Z,123.93
2022-12-17T16:13:03.950Z,128.97
2022-12-17T16:15:31.955Z,124.13
2022-12-17T16:18:00.043Z,129.27
2022-12-17T16:20:29.369Z,126.63
2022-12-17T16:22:57.355Z,129.77
2022-12-17T16:25:25.371Z,126.40
2022-12-17T16:27:53.337Z,131.03
2022-12-17T16:30:21.407Z,130.73
2022-12-17T16:32:49.423Z,128.20
2022-12-17T16:35:17.571Z,133.87
2022-12-17T16:37:46.942Z,129.03
2022-12-17T16:40:14.931Z,132.30
2022-12-17T16:42:42.933Z,125.97
2022-12-17T16:45:11.553Z,126.83
2022-12-17T16:47:39.941Z,124.70
2022-12-17T16:50:08.157Z,132.00
2022-12-17T16:52:36.355Z,123.17
2022-12-17T16:55:06.265Z,126.60
2022-12-17T16:57:34.316Z,127.17
2022-12-17T17:00:02.386Z,124.23
2022-12-17T17:02:30.615Z,129.87
2022-12-17T17:04:58.807Z,125.23
2022-12-17T17:07:26.890Z,124.03
2022-12-17T17:09:54.910Z,124.97
2022-12-17T17:12:25.510Z,119.53
2022-12-17T17:14:53.499Z,118.27
2022-12-17T17:17:54.319Z,117.23
2022-12-17T17:20:12.467Z,121.53
2022-12-17T17:22:40.900Z,125.17
2022-12-17T17:25:09.441Z,128.90
2022-12-17T17:27:38.934Z,121.87
2022-12-17T17:30:07.973Z,122.10
2022-12-17T17:32:36.022Z,124.67
2022-12-17T17:35:04.217Z,124.30
2022-12-17T17:37:32.316Z,122.03
2022-12-17T17:40:00.585Z,118.20
2022-12-17T17:42:28.615Z,120.40
2022-12-17T17:44:58.004Z,126.90
2022-12-17T17:47:25.976Z,126.00
2022-12-17T17:49:54.119Z,141.20
2022-12-17T17:52:22.104Z,133.13
2022-12-17T17:54:50.132Z,130.43
2022-12-17T17:57:18.186Z,129.13
2022-12-17T17:59:46.268Z,128.77
2022-12-17T18:02:15.722Z,126.87
2022-12-17T18:04:43.893Z,128.40
2022-12-17T18:07:28.472Z,128.67
2022-12-17T18:09:56.875Z,133.63
2022-12-17T18:12:42.383Z,131.10
2022-12-17T18:15:14.835Z,127.17
2022-12-17T18:17:45.767Z,130.30
2022-12-17T18:20:14.797Z,128.90
2022-12-17T18:22:42.890Z,119.47
2022-12-17T18:25:10.922Z,127.23
2022-12-17T18:27:39.030Z,122.93
2022-12-17T18:30:08.012Z,126.93
2022-12-17T18:32:36.002Z,128.20
2022-12-17T18:35:06.354Z,119.87
2022-12-17T18:37:34.573Z,115.73
2022-12-17T18:40:02.600Z,118.43
2022-12-17T18:42:48.204Z,117.77
2022-12-17T18:45:16.552Z,114.40
2022-12-17T18:47:44.862Z,116.17
2022-12-17T18:50:14.738Z,116.33
2022-12-17T18:52:42.734Z,121.27
2022-12-17T18:55:10.888Z,123.80
2022-12-17T18:57:38.851Z,128.80
2022-12-17T19:00:08.411Z,135.70
2022-12-17T19:02:36.513Z,130.87
2022-12-17T19:05:05.188Z,143.27
2022-12-17T19:07:34.590Z,143.03
2022-12-17T19:10:02.599Z,144.20
2022-12-17T19:12:30.806Z,139.77
2022-12-17T19:14:58.827Z,141.97
2022-12-17T19:17:26.876Z,137.80
2022-12-17T19:19:54.920Z,138.70
2022-12-17T19:22:23.005Z,142.17
2022-12-17T19:24:52.431Z,124.23
2022-12-17T19:27:20.475Z,122.37
2022-12-17T19:29:49.919Z,124.13
2022-12-17T19:32:18.685Z,117.43
2022-12-17T19:34:46.683Z,106.20
2022-12-17T19:37:14.737Z,119.50
2022-12-17T19:39:42.874Z,109.53
2022-12-17T19:42:24.951Z,99.30
2022-12-17T19:44:54.134Z,103.37
2022-12-17T19:47:23.301Z,104.43
2022-12-17T19:49:51.625Z,101.50
2022-12-17T19:52:19.808Z,100.13
2022-12-17T19:54:49.802Z,101.10
2022-12-17T19:57:19.160Z,98.73
2022-12-17T19:59:47.373Z,96.90
2022-12-17T20:02:17.530Z,102.90
2022-12-17T20:04:45.730Z,99.80
2022-12-17T20:07:13.716Z,101.73
2022-12-17T20:09:44.181Z,101.90
2022-12-17T20:12:12.583Z,98.27
2022-12-17T20:14:42.061Z,104.83
2022-12-17T20:17:11.093Z,101.07
2022-12-17T20:19:39.180Z,99.60
2022-12-17T20:22:07.856Z,100.90
2022-12-17T20:24:37.401Z,93.53
2022-12-17T20:27:05.882Z,97.67
2022-12-17T20:29:33.940Z,96.33
2022-12-17T20:32:03.924Z,91.70
2022-12-17T20:34:32.310Z,89.70
2022-12-17T20:37:00.347Z,87.47
2022-12-17T20:39:28.600Z,92.80
2022-12-17T20:41:57.315Z,81.37
2022-12-17T20:44:25.522Z,83.47
2022-12-17T20:46:53.861Z,83.03
2022-12-17T20:49:23.374Z,77.97
2022-12-17T20:51:51.450Z,84.33
2022-12-17T20:54:19.601Z,78.20
2022-12-17T20:56:47.710Z,81.80
2022-12-17T20:59:17.691Z,81.90
2022-12-17T21:01:49.190Z,79.13
2022-12-17T21:04:20.945Z,77.53
2022-12-17T21:06:50.395Z,78.40
2022-12-17T21:09:20.965Z,80.43
2022-12-17T21:11:49.724Z,79.10
2022-12-17T21:14:19.764Z,83.53
2022-12-17T21:16:48.247Z,81.03
2022-12-17T21:19:18.330Z,83.53
2022-12-17T21:21:46.600Z,81.20
2022-12-17T21:24:16.081Z,88.70
2022-12-17T21:26:45.909Z,82.20
2022-12-17T21:29:15.221Z,80.60
2022-12-17T21:31:45.965Z,84.47
2022-12-17T21:34:15.622Z,93.73
2022-12-17T21:36:44.547Z,81.97
2022-12-17T21:39:14.406Z,85.63
2022-12-17T21:42:05.842Z,90.40
2022-12-17T21:44:33.866Z,87.53
2022-12-17T21:47:02.332Z,83.03
2022-12-17T21:49:30.565Z,93.63
2022-12-17T21:52:00.144Z,87.50
2022-12-17T21:54:28.461Z,85.20
2022-12-17T21:56:57.899Z,90.00
2022-12-17T21:59:25.953Z,90.93
2022-12-17T22:01:54.476Z,89.97
2022-12-17T22:04:22.664Z,88.73
2022-12-17T22:06:53.256Z,88.30
2022-12-17T22:09:41.959Z,88.77
2022-12-17T22:12:32.030Z,83.00
2022-12-17T22:15:00.100Z,78.90
2022-12-17T22:17:29.651Z,79.47
2022-12-17T22:19:57.669Z,83.90
2022-12-17T22:22:25.665Z,80.77
2022-12-17T22:24:53.869Z,77.17
2022-12-17T22:27:24.121Z,73.33
2022-12-17T22:30:09.709Z,75.53
2022-12-17T22:32:55.001Z,79.47
2022-12-17T22:35:49.032Z,74.30
2022-12-17T22:40:47.344Z,80.10
2022-12-17T22:44:32.292Z,80.93
2022-12-17T22:44:46.465Z,78.20
2022-12-17T22:46:42.720Z,74.73
2022-12-17T22:49:11.137Z,71.70
2022-12-17T22:51:40.851Z,74.00
2022-12-17T22:54:12.146Z,73.43
2022-12-17T22:57:06.116Z,75.67
2022-12-17T22:59:31.985Z,73.13
2022-12-17T23:02:00.158Z,72.90
2022-12-17T23:04:28.242Z,73.90
2022-12-17T23:06:56.315Z,71.77
2022-12-17T23:09:24.300Z,70.67
2022-12-17T23:11:52.361Z,70.27
2022-12-17T23:14:20.531Z,70.23
2022-12-17T23:16:50.024Z,68.30
2022-12-17T23:19:20.536Z,66.00
2022-12-17T23:21:48.571Z,70.27
2022-12-17T23:24:16.604Z,69.73
2022-12-17T23:26:44.612Z,70.90
2022-12-17T23:29:19.429Z,65.00
2022-12-17T23:31:49.360Z,67.33
2022-12-17T23:34:17.452Z,65.20
2022-12-17T23:36:45.544Z,67.20
2022-12-17T23:39:13.586Z,64.70
2022-12-17T23:41:41.616Z,70.57
2022-12-17T23:44:09.677Z,70.33
2022-12-17T23:46:37.800Z,65.97
2022-12-17T23:49:07.495Z,66.13
2022-12-17T23:51:35.605Z,66.57
2022-12-17T23:54:03.827Z,64.60
2022-12-17T23:56:31.802Z,65.43
2022-12-17T23:59:01.672Z,68.10
